Time;durP1;ratioP1;P1;durP2;ratioP2;P2;SDS_P1;SDS_P2;PMS_P1;PMS_P2;Temp;Humidity;BMP_temperature;BMP_pressure;BME280_temperature;BME280_humidity;BME280_pressure;Samples;Min_cycle;Max_cycle;Signal;HPM_P1;HPM_P2
2022/08/04 00:01:17;;;;;;;2.58;2.15;;;28.50;49.80;;;;;;5055404;28;20464;-68
2022/08/04 00:03:54;;;;;;;3.80;2.50;;;28.60;49.80;;;;;;5055457;28;20033;-67
2022/08/04 00:06:34;;;;;;;2.53;2.30;;;28.40;49.90;;;;;;5033530;28;20056;-68
2022/08/04 00:09:10;;;;;;;3.80;2.42;;;28.30;49.90;;;;;;5034478;28;20045;-68
2022/08/04 00:11:39;;;;;;;3.30;2.08;;;28.40;49.90;;;;;;5034448;28;20033;-68
2022/08/04 00:14:15;;;;;;;3.58;2.60;;;28.30;49.90;;;;;;5054311;28;20525;-68
2022/08/04 00:16:42;;;;;;;3.50;2.47;;;28.40;49.90;;;;;;5060378;28;20480;-68
2022/08/04 00:19:41;;;;;;;1.98;1.88;;;28.30;50.00;;;;;;5068657;28;20108;-68
2022/08/04 00:22:09;;;;;;;4.20;2.70;;;28.30;50.00;;;;;;5073336;28;20381;-67
2022/08/04 00:24:37;;;;;;;2.55;2.35;;;28.20;50.00;;;;;;5055993;28;20167;-66
2022/08/04 00:27:03;;;;;;;4.38;2.45;;;28.30;50.10;;;;;;5034162;28;20033;-68
2022/08/04 00:29:30;;;;;;;4.95;2.85;;;28.30;50.20;;;;;;5059994;28;20075;-68
2022/08/04 00:31:56;;;;;;;2.97;2.40;;;28.20;50.20;;;;;;5066736;28;20039;-68
2022/08/04 00:34:27;;;;;;;3.28;2.35;;;28.20;50.20;;;;;;5068284;28;20032;-68
2022/08/04 00:36:54;;;;;;;3.78;3.00;;;28.20;50.20;;;;;;5054159;28;20343;-67
2022/08/04 00:39:21;;;;;;;2.50;2.30;;;28.20;50.20;;;;;;5054008;28;20040;-68
2022/08/04 00:42:12;;;;;;;2.20;2.03;;;28.30;50.20;;;;;;5053193;28;20037;-67
2022/08/04 00:44:59;;;;;;;5.68;2.40;;;28.30;50.20;;;;;;5047037;28;20385;-68
2022/08/04 00:48:02;;;;;;;2.17;1.98;;;28.30;50.30;;;;;;5069323;28;20021;-68
2022/08/04 00:51:06;;;;;;;2.85;2.08;;;28.20;50.30;;;;;;5056251;28;20539;-68
2022/08/04 00:53:53;;;;;;;3.10;2.50;;;28.20;50.30;;;;;;5053723;28;20033;-66
2022/08/04 00:56:41;;;;;;;2.72;2.42;;;28.30;50.30;;;;;;5029714;28;20518;-68
2022/08/04 00:59:36;;;;;;;7.18;2.55;;;28.20;50.30;;;;;;5022472;28;20506;-67
2022/08/04 01:02:14;;;;;;;4.05;2.10;;;28.30;50.30;;;;;;5024035;28;20045;-68
2022/08/04 01:05:09;;;;;;;2.75;1.90;;;28.30;50.40;;;;;;5024874;28;20092;-67
2022/08/04 01:07:38;;;;;;;2.58;2.13;;;28.20;50.30;;;;;;4990105;28;20513;-68
2022/08/04 01:10:16;;;;;;;2.50;2.30;;;28.20;50.30;;;;;;4991319;28;20078;-67
2022/08/04 01:13:00;;;;;;;1.98;1.88;;;28.20;50.30;;;;;;4987278;28;20053;-68
2022/08/04 01:15:39;;;;;;;3.85;2.50;;;28.20;50.40;;;;;;4972972;28;20137;-68
2022/08/04 01:18:07;;;;;;;2.72;2.42;;;28.20;50.40;;;;;;4989510;28;20037;-68
2022/08/04 01:21:12;;;;;;;3.53;2.38;;;28.30;50.50;;;;;;4989957;28;20057;-68
2022/08/04 01:23:57;;;;;;;2.80;2.55;;;28.10;50.50;;;;;;4990187;28;20034;-68
2022/08/04 01:26:49;;;;;;;2.70;2.50;;;28.10;50.50;;;;;;4990209;28;20038;-68
2022/08/04 01:29:17;;;;;;;2.77;2.30;;;28.20;50.50;;;;;;4973832;28;20050;-66
2022/08/04 01:31:54;;;;;;;3.92;2.65;;;28.00;50.50;;;;;;4988539;28;20477;-68
2022/08/04 01:34:21;;;;;;;2.30;2.10;;;28.10;50.50;;;;;;4990900;28;20046;-67
2022/08/04 01:37:11;;;;;;;3.33;2.60;;;28.10;50.50;;;;;;5026035;28;20043;-68
2022/08/04 01:39:49;;;;;;;3.10;2.80;;;28.10;50.50;;;;;;4996856;28;20030;-68
2022/08/04 01:42:18;;;;;;;2.53;2.20;;;28.10;50.60;;;;;;4995460;28;20031;-68
2022/08/04 01:44:47;;;;;;;3.42;2.88;;;28.10;50.60;;;;;;5022658;28;20045;-68
2022/08/04 01:47:19;;;;;;;2.70;2.50;;;28.10;50.60;;;;;;5067694;28;20039;-68
2022/08/04 01:49:48;;;;;;;2.80;2.58;;;28.10;50.60;;;;;;5068086;28;20044;-67
2022/08/04 01:52:17;;;;;;;2.58;2.25;;;28.00;50.60;;;;;;5066727;28;20068;-68
2022/08/04 01:54:44;;;;;;;6.68;2.30;;;28.20;50.60;;;;;;5047269;28;20033;-68
2022/08/04 01:57:11;;;;;;;2.40;1.98;;;28.00;50.60;;;;;;5055528;28;20039;-68
2022/08/04 01:59:38;;;;;;;3.60;2.40;;;28.10;50.60;;;;;;5072459;28;20103;-68
2022/08/04 02:02:05;;;;;;;4.80;2.80;;;28.10;50.60;;;;;;5066358;28;20033;-68
2022/08/04 02:04:32;;;;;;;3.83;2.50;;;28.00;50.60;;;;;;5067172;28;20033;-68
2022/08/04 02:07:04;;;;;;;5.13;2.30;;;28.10;50.60;;;;;;5052457;28;20049;-68
2022/08/04 02:09:45;;;;;;;9.45;2.50;;;28.00;50.60;;;;;;5062083;28;20421;-67
2022/08/04 02:12:32;;;;;;;3.42;2.75;;;28.10;50.60;;;;;;5098315;28;20513;-67
2022/08/04 02:15:06;;;;;;;3.42;2.25;;;28.20;50.60;;;;;;5059652;28;20497;-67
2022/08/04 02:17:44;;;;;;;3.17;2.63;;;28.00;50.60;;;;;;5071326;28;20373;-68
2022/08/04 02:20:18;;;;;;;2.50;2.30;;;28.20;50.60;;;;;;5065239;28;20450;-68
2022/08/04 02:22:55;;;;;;;3.00;2.53;;;28.00;50.60;;;;;;5052003;28;20037;-68
2022/08/04 02:25:25;;;;;;;5.22;2.97;;;27.90;50.10;;;;;;5055103;28;20024;-67
2022/08/04 02:28:00;;;;;;;5.82;2.47;;;28.00;50.60;;;;;;5064155;28;20040;-67
2022/08/04 02:30:54;;;;;;;3.55;2.60;;;27.90;50.10;;;;;;5064658;28;20120;-68
2022/08/04 02:33:28;;;;;;;5.18;2.30;;;28.00;50.60;;;;;;5071690;28;20026;-67
2022/08/04 02:35:59;;;;;;;5.55;2.58;;;27.90;50.10;;;;;;5052131;28;20494;-68
2022/08/04 02:38:41;;;;;;;4.07;3.23;;;27.90;50.20;;;;;;5031808;28;20037;-68
2022/08/04 02:41:08;;;;;;;3.97;2.42;;;27.90;50.30;;;;;;5037520;28;20076;-68
2022/08/04 02:43:35;;;;;;;2.72;2.53;;;27.90;50.30;;;;;;5071321;28;20040;-68
2022/08/04 02:46:03;;;;;;;2.72;2.53;;;27.90;50.30;;;;;;5056191;28;20410;-68
2022/08/04 02:48:33;;;;;;;2.63;2.42;;;27.80;50.30;;;;;;5030367;28;20021;-67
2022/08/04 02:51:01;;;;;;;3.40;2.45;;;27.90;50.30;;;;;;5031801;28;20029;-68
2022/08/04 02:53:35;;;;;;;2.85;2.40;;;28.00;50.90;;;;;;5048318;28;20370;-67
2022/08/04 02:56:02;;;;;;;2.55;2.22;;;27.90;50.40;;;;;;5050245;28;20139;-68
2022/08/04 02:58:33;;;;;;;4.25;2.40;;;28.00;51.00;;;;;;5082406;28;20464;-68
2022/08/04 03:00:59;;;;;;;3.10;2.20;;;28.00;51.00;;;;;;5063585;28;20035;-68
2022/08/04 03:03:42;;;;;;;3.88;2.50;;;27.90;50.50;;;;;;5070683;28;20043;-68
2022/08/04 03:06:11;;;;;;;2.55;2.10;;;27.90;50.50;;;;;;5051398;28;20112;-68
2022/08/04 03:08:37;;;;;;;2.75;2.55;;;27.90;50.40;;;;;;5071045;28;20154;-68
2022/08/04 03:11:04;;;;;;;3.10;2.38;;;27.90;50.50;;;;;;5071666;28;20128;-68
2022/08/04 03:13:40;;;;;;;3.50;2.50;;;27.90;50.50;;;;;;5062732;28;20028;-68
2022/08/04 03:16:09;;;;;;;3.00;2.75;;;27.90;50.50;;;;;;5058735;28;20603;-68
2022/08/04 03:19:03;;;;;;;4.82;3.10;;;27.80;50.50;;;;;;5071243;28;20043;-68
2022/08/04 03:22:04;;;;;;;3.58;3.28;;;28.00;51.10;;;;;;5039427;28;20029;-68
2022/08/04 03:25:07;;;;;;;3.80;2.78;;;27.90;50.60;;;;;;5028676;28;20041;-68
2022/08/04 03:27:51;;;;;;;8.07;2.80;;;28.00;51.20;;;;;;5045095;28;20032;-68
2022/08/04 03:30:47;;;;;;;3.67;2.60;;;27.90;50.70;;;;;;5063949;28;20045;-67
2022/08/04 03:33:35;;;;;;;2.72;2.50;;;27.90;50.80;;;;;;5034689;28;20034;-68
2022/08/04 03:36:29;;;;;;;3.53;2.50;;;28.00;51.40;;;;;;5040187;28;20396;-68
2022/08/04 03:39:02;;;;;;;2.47;2.28;;;27.80;50.80;;;;;;5051064;28;20021;-68
2022/08/04 03:41:50;;;;;;;5.07;2.65;;;27.70;50.80;;;;;;5049982;28;20851;-68
2022/08/04 03:45:11;;;;;;;2.60;2.40;;;27.80;50.90;;;;;;5070196;28;20119;-68
2022/08/04 03:47:56;;;;;;;6.82;2.95;;;27.70;50.90;;;;;;5009289;28;20033;-68
2022/08/04 03:50:41;;;;;;;6.18;2.58;;;27.80;50.90;;;;;;5018955;28;20050;-67
2022/08/04 03:53:23;;;;;;;7.07;2.55;;;27.70;51.00;;;;;;5023246;28;20053;-68
2022/08/04 03:55:49;;;;;;;;;;;27.60;51.10;;;;;;5008829;28;20390;-68
2022/08/04 03:58:44;;;;;;;5.07;2.10;;;27.70;51.10;;;;;;5013881;28;19913;-68
2022/08/04 04:01:47;;;;;;;5.97;2.72;;;27.60;51.20;;;;;;5017646;28;20041;-68
2022/08/04 04:04:42;;;;;;;2.95;2.38;;;27.70;51.20;;;;;;5015107;28;20046;-68
2022/08/04 04:07:16;;;;;;;3.70;2.20;;;27.60;51.30;;;;;;5011641;28;20030;-67
2022/08/04 04:10:19;;;;;;;3.40;2.63;;;27.60;51.50;;;;;;5008428;28;20547;-66
2022/08/04 04:13:24;;;;;;;4.20;3.20;;;27.70;51.60;;;;;;5014147;28;20140;-69
2022/08/04 04:15:59;;;;;;;2.53;2.33;;;27.60;51.70;;;;;;5015786;28;20046;-68
2022/08/04 04:19:02;;;;;;;3.47;2.30;;;27.70;51.80;;;;;;5022693;28;20116;-66
2022/08/04 04:21:31;;;;;;;3.05;2.15;;;27.70;51.80;;;;;;5012356;28;20076;-68
2022/08/04 04:24:32;;;;;;;2.85;2.20;;;27.70;51.90;;;;;;5017826;28;20033;-68
2022/08/04 04:27:18;;;;;;;3.22;2.47;;;27.80;51.90;;;;;;5043731;28;20033;-68
2022/08/04 04:29:59;;;;;;;3.00;2.40;;;27.60;52.00;;;;;;5047435;28;20045;-68
2022/08/04 04:32:57;;;;;;;3.30;1.90;;;27.70;52.00;;;;;;5060061;28;20041;-68
2022/08/04 04:35:54;;;;;;;5.38;2.08;;;27.80;52.00;;;;;;5045148;28;20042;-69
2022/08/04 04:38:56;;;;;;;4.78;2.47;;;27.80;52.00;;;;;;5010612;28;20042;-71
2022/08/04 04:42:11;;;;;;;6.93;2.47;;;27.90;51.70;;;;;;5010139;28;20048;-72
2022/08/04 04:44:46;;;;;;;2.55;1.85;;;27.80;52.50;;;;;;4970384;28;20047;-72
2022/08/04 04:47:30;;;;;;;1.40;1.30;;;27.90;52.90;;;;;;4970636;28;20034;-72
2022/08/04 04:50:02;;;;;;;1.75;1.27;;;27.90;52.80;;;;;;4970991;28;20050;-71
2022/08/04 04:52:40;;;;;;;1.00;1.00;;;28.10;53.50;;;;;;4966309;28;20510;-72
2022/08/04 04:55:26;;;;;;;1.05;1.05;;;28.00;53.60;;;;;;4969073;28;20766;-72
2022/08/04 04:57:57;;;;;;;2.63;1.85;;;28.10;53.60;;;;;;4972394;28;20034;-76
2022/08/04 05:00:33;;;;;;;8.30;2.00;;;28.10;52.90;;;;;;4969014;28;20042;-74
2022/08/04 05:03:21;;;;;;;1.20;1.10;;;28.00;52.90;;;;;;4969225;28;20077;-76
2022/08/04 05:05:50;;;;;;;10.50;1.23;;;28.10;52.50;;;;;;4979316;28;20117;-77
2022/08/04 05:08:42;;;;;;;1.48;1.38;;;28.00;52.10;;;;;;4974820;28;20480;-75
2022/08/04 05:11:43;;;;;;;4.72;2.75;;;28.00;53.40;;;;;;4954826;28;20090;-74
2022/08/04 05:14:27;;;;;;;6.50;2.55;;;28.10;53.00;;;;;;4968086;28;20159;-70
2022/08/04 05:17:05;;;;;;;4.85;2.40;;;28.00;52.70;;;;;;4990512;28;20156;-76
2022/08/04 05:19:49;;;;;;;4.07;2.42;;;28.10;52.40;;;;;;4990802;28;20039;-74
2022/08/04 05:22:30;;;;;;;3.20;2.58;;;28.20;52.20;;;;;;5025880;28;20053;-73
2022/08/04 05:25:22;;;;;;;4.75;2.65;;;28.10;51.90;;;;;;5045194;28;20064;-77
2022/08/04 05:27:55;;;;;;;4.28;2.83;;;28.20;51.60;;;;;;5025108;28;20049;-71
2022/08/04 05:30:23;;;;;;;8.50;2.85;;;28.10;51.10;;;;;;5024998;28;20061;-70
2022/08/04 05:32:57;;;;;;;4.55;2.78;;;28.10;51.00;;;;;;5026295;28;20037;-71
2022/08/04 05:35:34;;;;;;;2.75;2.53;;;28.20;50.50;;;;;;5018821;28;20684;-68
2022/08/04 05:38:02;;;;;;;3.25;2.95;;;28.20;50.20;;;;;;5027235;28;20466;-69
2022/08/04 05:40:28;;;;;;;4.18;2.60;;;28.30;50.30;;;;;;5028865;28;20132;-69
2022/08/04 05:42:56;;;;;;;2.33;2.13;;;28.20;50.60;;;;;;5025071;28;20033;-69
2022/08/04 05:45:22;;;;;;;5.97;2.13;;;28.30;50.60;;;;;;5013908;28;20045;-69
2022/08/04 05:47:52;;;;;;;2.63;2.42;;;28.20;50.30;;;;;;5008737;28;20046;-71
2022/08/04 05:50:19;;;;;;;3.20;2.42;;;28.30;50.20;;;;;;5010863;28;20046;-74
2022/08/04 05:52:46;;;;;;;4.85;2.03;;;28.20;50.10;;;;;;5015870;28;20189;-67
2022/08/04 05:55:15;;;;;;;5.63;2.50;;;28.30;50.40;;;;;;5018483;28;20041;-72
2022/08/04 05:57:43;;;;;;;4.90;2.25;;;28.20;50.50;;;;;;5015657;28;20050;-74
2022/08/04 06:00:10;;;;;;;4.07;2.35;;;28.20;50.50;;;;;;5024893;28;20037;-71
2022/08/04 06:02:38;;;;;;;4.07;2.83;;;28.20;50.60;;;;;;5027087;28;20393;-70
2022/08/04 06:05:06;;;;;;;3.85;2.00;;;28.30;50.10;;;;;;5050159;28;20128;-70
2022/08/04 06:07:33;;;;;;;3.35;2.63;;;28.30;50.30;;;;;;5040677;28;20021;-71
2022/08/04 06:10:00;;;;;;;3.45;2.80;;;28.20;50.40;;;;;;5032583;28;20053;-80
2022/08/04 06:12:33;;;;;;;2.90;2.50;;;28.20;50.80;;;;;;5036357;28;20029;-77
2022/08/04 06:15:01;;;;;;;3.72;2.53;;;28.40;50.90;;;;;;5049324;28;20103;-80
2022/08/04 06:17:32;;;;;;;3.45;2.30;;;28.20;51.00;;;;;;5048548;28;20063;-80
2022/08/04 06:20:01;;;;;;;5.10;2.67;;;28.30;51.00;;;;;;5049310;28;20039;-75
2022/08/04 06:22:29;;;;;;;5.88;3.22;;;28.20;51.20;;;;;;5042422;28;20034;-78
2022/08/04 06:24:56;;;;;;;2.83;2.63;;;28.40;51.40;;;;;;5046013;28;20024;-77
2022/08/04 06:27:23;;;;;;;4.18;2.38;;;28.30;51.60;;;;;;5048877;28;20045;-76
2022/08/04 06:29:51;;;;;;;2.60;2.35;;;28.30;51.70;;;;;;5052572;28;20375;-77
2022/08/04 06:32:35;;;;;;;3.17;2.63;;;28.40;51.90;;;;;;5052305;28;20024;-78
2022/08/04 06:35:05;;;;;;;6.43;2.70;;;28.40;52.00;;;;;;5051195;28;20404;-78
2022/08/04 06:37:33;;;;;;;3.30;3.00;;;28.50;52.00;;;;;;5052204;28;20468;-78
2022/08/04 06:40:01;;;;;;;2.75;2.35;;;28.50;52.10;;;;;;5050717;28;20488;-77
2022/08/04 06:42:28;;;;;;;7.63;3.42;;;28.50;51.80;;;;;;5051321;28;20032;-78
2022/08/04 06:44:58;;;;;;;2.53;2.33;;;28.30;51.60;;;;;;5048461;28;20041;-77
2022/08/04 06:47:25;;;;;;;3.50;2.78;;;28.30;51.70;;;;;;5036596;28;20021;-77
2022/08/04 06:49:53;;;;;;;5.78;2.72;;;28.30;51.50;;;;;;5035073;28;20044;-77
2022/08/04 06:52:20;;;;;;;4.65;2.13;;;28.40;51.40;;;;;;5048755;28;20045;-74
2022/08/04 06:54:47;;;;;;;2.85;2.38;;;28.30;51.50;;;;;;5052088;28;20068;-77
2022/08/04 06:57:16;;;;;;;9.13;3.38;;;28.30;51.40;;;;;;5032661;28;20037;-78
2022/08/04 06:59:44;;;;;;;2.50;2.30;;;28.40;51.40;;;;;;5031950;28;20033;-78
2022/08/04 07:02:14;;;;;;;4.25;2.65;;;28.30;51.60;;;;;;5043725;28;20111;-78
2022/08/04 07:04:43;;;;;;;4.68;3.20;;;28.20;51.50;;;;;;5051656;28;20033;-78
2022/08/04 07:07:10;;;;;;;2.90;2.30;;;28.30;51.60;;;;;;5036601;28;20034;-77
2022/08/04 07:09:37;;;;;;;2.45;2.25;;;28.30;51.90;;;;;;5032197;28;20056;-77
2022/08/04 07:12:06;;;;;;;5.53;2.65;;;28.30;52.00;;;;;;5032319;28;20037;-77
2022/08/04 07:14:35;;;;;;;6.35;2.45;;;28.30;51.90;;;;;;5031700;28;20042;-77
2022/08/04 07:17:05;;;;;;;8.02;3.08;;;28.20;51.90;;;;;;5049130;28;20466;-77
2022/08/04 07:19:32;;;;;;;3.90;2.92;;;28.40;51.90;;;;;;5048061;28;20342;-78
2022/08/04 07:22:02;;;;;;;2.33;2.20;;;28.40;51.90;;;;;;5031896;28;20034;-77
2022/08/04 07:24:30;;;;;;;6.25;3.17;;;28.30;51.90;;;;;;5031675;28;20045;-77
2022/08/04 07:26:56;;;;;;;3.25;2.75;;;28.30;51.90;;;;;;5031791;28;20390;-77
2022/08/04 07:29:23;;;;;;;3.10;2.53;;;28.40;51.90;;;;;;5031666;28;20117;-77
2022/08/04 07:31:50;;;;;;;3.63;2.53;;;28.40;51.90;;;;;;5031786;28;20423;-77
2022/08/04 07:34:17;;;;;;;5.38;2.63;;;28.40;52.00;;;;;;5031713;28;20117;-76
2022/08/04 07:36:43;;;;;;;3.15;2.80;;;28.20;52.00;;;;;;5047894;28;20056;-76
2022/08/04 07:39:09;;;;;;;4.32;2.38;;;28.30;51.90;;;;;;5051458;28;20343;-77
2022/08/04 07:41:36;;;;;;;2.70;2.50;;;28.40;51.90;;;;;;5048475;28;20036;-77
2022/08/04 07:44:03;;;;;;;2.60;2.40;;;28.20;51.90;;;;;;5051726;28;20025;-77
2022/08/04 07:46:29;;;;;;;3.55;2.53;;;28.40;51.90;;;;;;5051324;28;20512;-78
2022/08/04 07:48:57;;;;;;;3.00;2.47;;;28.20;51.40;;;;;;5051368;28;20037;-77
2022/08/04 07:51:24;;;;;;;3.25;2.63;;;28.30;51.60;;;;;;5050005;28;20374;-78
2022/08/04 07:53:50;;;;;;;2.72;2.38;;;28.30;51.80;;;;;;5055340;28;20466;-77
2022/08/04 07:56:16;;;;;;;3.47;2.22;;;28.40;51.80;;;;;;5052805;28;20456;-77
2022/08/04 07:58:43;;;;;;;3.95;2.60;;;28.20;51.70;;;;;;5054813;28;20127;-77
2022/08/04 08:01:10;;;;;;;4.40;2.38;;;28.20;51.60;;;;;;5048621;28;20067;-76
2022/08/04 08:03:37;;;;;;;2.35;2.15;;;28.20;51.90;;;;;;5056523;28;20071;-74
2022/08/04 08:06:04;;;;;;;4.22;2.70;;;28.20;51.90;;;;;;5067671;28;20078;-74
2022/08/04 08:08:30;;;;;;;2.45;2.15;;;28.10;51.90;;;;;;5074172;28;20032;-75
2022/08/04 08:10:56;;;;;;;5.78;2.67;;;28.10;52.00;;;;;;5060658;28;20119;-75
2022/08/04 08:13:23;;;;;;;6.07;2.10;;;28.20;52.00;;;;;;5054000;28;20025;-75
2022/08/04 08:15:49;;;;;;;3.03;2.78;;;28.20;52.30;;;;;;5054636;28;20052;-73
2022/08/04 08:18:15;;;;;;;2.88;2.67;;;28.20;52.20;;;;;;5054551;28;20037;-73
2022/08/04 08:20:45;;;;;;;3.35;2.90;;;28.00;52.40;;;;;;5065325;28;20044;-72
2022/08/04 08:23:11;;;;;;;4.45;3.42;;;28.10;52.40;;;;;;5041650;28;20374;-73
2022/08/04 08:25:37;;;;;;;4.38;3.05;;;28.20;52.50;;;;;;5053845;28;20098;-72
2022/08/04 08:28:05;;;;;;;2.92;2.72;;;28.10;52.30;;;;;;5053826;28;20025;-73
2022/08/04 08:30:32;;;;;;;5.35;2.50;;;28.20;52.50;;;;;;5053739;28;20067;-73
2022/08/04 08:33:05;;;;;;;2.55;2.35;;;28.20;52.40;;;;;;5051300;28;20738;-72
2022/08/04 08:35:54;;;;;;;7.63;2.80;;;28.20;52.60;;;;;;5056075;28;20052;-72
2022/08/04 08:38:44;;;;;;;5.90;2.40;;;28.20;52.50;;;;;;5060400;28;20907;-81
2022/08/04 08:41:33;;;;;;;5.55;1.92;;;28.00;53.90;;;;;;5049764;28;20027;-78
2022/08/04 08:44:44;;;;;;;4.43;2.97;;;28.20;55.30;;;;;;5052416;28;20106;-73
2022/08/04 08:47:48;;;;;;;1.75;1.65;;;28.30;55.50;;;;;;5024694;28;20037;-73
2022/08/04 08:50:32;;;;;;;;;;;28.30;56.10;;;;;;5019166;28;20541;-75
2022/08/04 08:53:17;;;;;;;2.83;2.50;;;28.40;55.90;;;;;;5027438;28;20306;-71
2022/08/04 08:56:03;;;;;;;2.20;2.08;;;28.30;56.20;;;;;;5021270;28;20041;-74
2022/08/04 08:59:03;;;;;;;3.28;1.33;;;28.40;56.60;;;;;;5019692;28;20128;-73
2022/08/04 09:01:44;;;;;;;1.10;0.75;;;28.40;57.30;;;;;;5028066;28;20442;-75
2022/08/04 09:04:34;;;;;;;1.30;1.20;;;28.50;55.50;;;;;;5016971;28;20511;-75
2022/08/04 09:07:32;;;;;;;2.55;0.95;;;28.60;55.20;;;;;;5028992;28;20373;-78
2022/08/04 09:10:16;;;;;;;1.60;1.50;;;28.50;54.50;;;;;;5020185;28;20145;-70
2022/08/04 09:13:09;;;;;;;2.58;1.30;;;28.60;54.90;;;;;;5021087;28;20030;-70
2022/08/04 09:15:43;;;;;;;2.25;1.95;;;28.40;54.60;;;;;;5025235;28;20080;-73
2022/08/04 09:18:17;;;;;;;2.70;2.50;;;28.40;54.50;;;;;;5016046;28;20410;-80
2022/08/04 09:21:08;;;;;;;4.60;3.10;;;28.40;55.30;;;;;;5024008;28;20033;-77
2022/08/04 09:23:43;;;;;;;3.35;3.05;;;28.40;54.90;;;;;;5031655;28;20042;-77
2022/08/04 09:26:22;;;;;;;3.50;2.60;;;28.60;53.80;;;;;;5048677;28;20044;-75
2022/08/04 09:29:00;;;;;;;4.95;2.72;;;28.60;54.20;;;;;;5035540;28;20068;-79
2022/08/04 09:31:45;;;;;;;2.45;2.25;;;28.50;54.10;;;;;;5060564;28;20121;-78
2022/08/04 09:34:37;;;;;;;3.60;2.65;;;28.60;53.60;;;;;;5053070;28;20382;-80
2022/08/04 09:37:30;;;;;;;4.53;3.13;;;28.50;53.90;;;;;;5051342;28;20029;-80
2022/08/04 09:40:10;;;;;;;;;;;28.60;53.60;;;;;;5059832;28;20427;-79
2022/08/04 09:43:08;;;;;;;3.38;2.30;;;28.60;53.80;;;;;;5053379;28;19909;-72
2022/08/04 09:45:47;;;;;;;1.52;0.88;;;28.60;53.70;;;;;;5061241;28;20056;-70
2022/08/04 09:48:34;;;;;;;1.08;1.08;;;28.50;53.20;;;;;;5069442;28;20049;-70
2022/08/04 09:51:10;;;;;;;3.17;2.83;;;28.50;53.50;;;;;;5050654;28;20556;-70
2022/08/04 09:53:51;;;;;;;5.28;3.00;;;28.60;53.50;;;;;;5049056;28;20045;-71
2022/08/04 09:56:51;;;;;;;2.58;2.38;;;28.60;53.80;;;;;;5052481;28;20048;-70
2022/08/04 09:59:38;;;;;;;2.58;2.38;;;28.60;54.10;;;;;;5045324;28;20566;-67
2022/08/04 10:02:08;;;;;;;3.00;2.50;;;28.60;53.50;;;;;;5059929;28;20380;-72
2022/08/04 10:04:35;;;;;;;5.53;3.10;;;28.70;54.10;;;;;;5056168;28;20381;-69
2022/08/04 10:07:20;;;;;;;5.88;3.10;;;28.70;54.80;;;;;;5046033;28;20120;-68
2022/08/04 10:10:11;;;;;;;6.45;3.15;;;28.80;55.60;;;;;;5053432;28;20060;-67
2022/08/04 10:12:42;;;;;;;6.28;2.65;;;28.90;54.40;;;;;;5057428;28;20033;-69
2022/08/04 10:15:32;;;;;;;5.45;2.53;;;28.70;54.40;;;;;;5051400;28;20118;-68
2022/08/04 10:18:13;;;;;;;5.03;2.65;;;29.00;55.20;;;;;;5051408;28;20567;-69
2022/08/04 10:21:00;;;;;;;2.72;2.40;;;29.00;55.20;;;;;;5049698;28;20036;-69
2022/08/04 10:23:47;;;;;;;9.18;3.13;;;29.10;54.00;;;;;;5045432;28;20458;-68
2022/08/04 10:26:32;;;;;;;9.13;3.60;;;29.10;54.00;;;;;;5052640;28;20044;-70
2022/08/04 10:29:04;;;;;;;4.70;2.80;;;29.20;54.10;;;;;;5069931;28;20037;-73
2022/08/04 10:31:35;;;;;;;3.63;2.78;;;29.20;51.60;;;;;;5052771;28;20033;-74
2022/08/04 10:34:13;;;;;;;2.90;2.70;;;29.10;52.60;;;;;;5045795;28;20068;-74
2022/08/04 10:36:50;;;;;;;3.92;2.38;;;29.20;52.70;;;;;;5055445;28;20460;-75
2022/08/04 10:39:23;;;;;;;6.72;2.72;;;29.40;53.40;;;;;;5054041;28;20061;-74
2022/08/04 10:41:52;;;;;;;2.05;1.85;;;29.60;58.30;;;;;;5033804;28;20147;-73
2022/08/04 10:44:30;;;;;;;2.50;2.20;;;29.50;54.60;;;;;;5051777;28;20091;-74
2022/08/04 10:47:00;;;;;;;2.50;2.30;;;29.40;51.50;;;;;;5058403;28;20056;-73
2022/08/04 10:49:42;;;;;;;2.72;2.35;;;29.40;50.80;;;;;;5042094;28;20190;-72
2022/08/04 10:52:19;;;;;;;2.58;2.33;;;29.40;50.70;;;;;;5056215;28;20032;-73
2022/08/04 10:55:16;;;;;;;5.57;2.72;;;29.30;50.70;;;;;;5048568;28;20041;-74
2022/08/04 10:57:54;;;;;;;4.00;2.30;;;29.30;49.80;;;;;;5048581;28;20040;-75
2022/08/04 11:00:30;;;;;;;1.98;1.88;;;29.20;49.40;;;;;;5044769;28;20052;-74
2022/08/04 11:03:29;;;;;;;2.55;2.33;;;29.20;49.10;;;;;;5059818;28;20032;-75
2022/08/04 11:06:08;;;;;;;5.80;2.60;;;29.20;48.80;;;;;;5034625;28;20032;-76
2022/08/04 11:08:37;;;;;;;2.50;2.30;;;29.30;48.50;;;;;;5039387;28;20061;-75
2022/08/04 11:11:21;;;;;;;2.40;2.20;;;29.20;48.30;;;;;;5067428;28;20389;-76
2022/08/04 11:14:02;;;;;;;5.45;2.38;;;29.10;47.80;;;;;;5069345;28;20039;-76
2022/08/04 11:16:50;;;;;;;1.90;1.80;;;29.00;47.60;;;;;;5053747;28;20425;-74
2022/08/04 11:19:52;;;;;;;3.95;2.67;;;29.10;47.40;;;;;;5074083;28;20061;-75
2022/08/04 11:22:21;;;;;;;2.53;1.98;;;29.00;46.90;;;;;;5021609;28;20021;-75
2022/08/04 11:24:53;;;;;;;2.35;2.15;;;29.00;46.60;;;;;;5027904;28;20140;-74
2022/08/04 11:27:49;;;;;;;4.38;2.83;;;29.00;46.20;;;;;;5036405;28;20037;-79
2022/08/04 11:30:16;;;;;;;6.20;2.72;;;29.00;46.00;;;;;;4966005;28;20048;-74
2022/08/04 11:33:05;;;;;;;2.65;2.38;;;29.00;45.40;;;;;;4945816;28;20055;-79
2022/08/04 11:35:41;;;;;;;2.08;1.92;;;29.00;45.40;;;;;;4951080;28;20027;-73
2022/08/04 11:38:35;;;;;;;3.28;2.65;;;29.00;45.00;;;;;;4954368;28;20059;-72
2022/08/04 11:41:12;;;;;;;3.30;2.25;;;28.90;44.10;;;;;;4970424;28;20047;-74
2022/08/04 11:43:47;;;;;;;7.15;2.63;;;29.00;44.60;;;;;;4968023;28;20058;-75
2022/08/04 11:46:22;;;;;;;5.43;2.50;;;28.90;44.20;;;;;;4962116;28;20050;-73
2022/08/04 11:49:06;;;;;;;2.92;2.30;;;28.90;45.00;;;;;;4973795;28;20050;-76
2022/08/04 11:51:34;;;;;;;2.28;2.08;;;28.90;45.80;;;;;;4958396;28;20043;-73
2022/08/04 11:54:00;;;;;;;2.65;2.45;;;28.90;46.50;;;;;;4950481;28;20047;-74
2022/08/04 11:56:27;;;;;;;4.22;2.22;;;28.90;47.40;;;;;;4924419;29;20078;-78
2022/08/04 11:58:55;;;;;;;4.38;2.47;;;28.80;48.00;;;;;;4973751;28;20492;-75
2022/08/04 12:01:27;;;;;;;2.22;2.10;;;28.70;48.30;;;;;;4972277;28;20407;-80
2022/08/04 12:03:56;;;;;;;3.27;2.97;;;28.60;48.60;;;;;;4972594;28;20042;-80
2022/08/04 12:06:32;;;;;;;2.67;2.15;;;28.70;48.80;;;;;;4977265;28;20295;-77
2022/08/04 12:09:01;;;;;;;2.88;2.67;;;28.70;49.10;;;;;;5050405;28;20037;-77
2022/08/04 12:11:49;;;;;;;2.50;2.30;;;28.60;49.10;;;;;;5070798;28;20068;-73
2022/08/04 12:14:32;;;;;;;4.55;2.45;;;28.60;49.00;;;;;;5073237;28;20036;-76
2022/08/04 12:17:01;;;;;;;1.08;1.05;;;28.60;49.20;;;;;;5051062;28;20041;-75
2022/08/04 12:19:33;;;;;;;2.92;2.72;;;28.70;49.50;;;;;;5053092;28;20040;-76
2022/08/04 12:22:04;;;;;;;2.90;2.70;;;28.60;49.50;;;;;;5039687;28;20111;-79
2022/08/04 12:24:36;;;;;;;4.05;3.10;;;28.70;49.50;;;;;;5046061;28;20116;-74
2022/08/04 12:27:18;;;;;;;3.17;2.15;;;28.70;49.70;;;;;;5050903;28;20040;-75
2022/08/04 12:29:45;;;;;;;3.25;2.80;;;28.60;49.70;;;;;;5050395;28;20037;-74
2022/08/04 12:32:42;;;;;;;3.45;2.35;;;28.50;49.90;;;;;;5047692;28;20021;-73
2022/08/04 12:35:20;;;;;;;9.35;4.22;;;28.60;50.00;;;;;;5011023;28;20352;-75
2022/08/04 12:37:50;;;;;;;11.77;3.35;;;28.60;52.50;;;;;;5009979;28;20069;-79
2022/08/04 12:40:22;;;;;;;5.18;2.58;;;28.60;50.80;;;;;;5008102;28;20046;-80
2022/08/04 12:43:22;;;;;;;3.90;2.60;;;28.60;50.50;;;;;;5011346;28;20700;-81
2022/08/04 12:45:50;;;;;;;6.35;3.35;;;28.60;50.60;;;;;;4934363;29;20051;-80
2022/08/04 12:48:21;;;;;;;5.47;3.20;;;28.60;52.70;;;;;;4918790;29;20051;-77
2022/08/04 12:50:55;;;;;;;5.32;3.40;;;28.60;50.90;;;;;;4932656;29;20134;-69
2022/08/04 12:53:27;;;;;;;5.63;3.40;;;28.70;51.10;;;;;;4946822;29;20043;-70
2022/08/04 12:55:54;;;;;;;7.40;3.35;;;28.70;51.60;;;;;;4917365;29;20090;-71
2022/08/04 12:58:26;;;;;;;6.82;4.13;;;28.60;51.50;;;;;;4932990;29;20127;-70
2022/08/04 13:00:57;;;;;;;9.07;3.63;;;28.50;51.40;;;;;;4938083;29;20132;-70
2022/08/04 13:03:35;;;;;;;4.85;4.35;;;28.60;51.50;;;;;;4952882;29;20219;-71
2022/08/04 13:06:02;;;;;;;10.57;4.05;;;28.40;51.50;;;;;;4943789;29;20051;-71
2022/08/04 13:08:32;;;;;;;4.72;3.67;;;28.50;51.70;;;;;;4936407;29;20365;-71
2022/08/04 13:10:59;;;;;;;3.95;3.65;;;28.40;51.70;;;;;;4952573;28;20062;-70
2022/08/04 13:13:27;;;;;;;7.18;3.47;;;28.50;51.70;;;;;;4987629;28;20230;-71
2022/08/04 13:15:56;;;;;;;4.72;3.83;;;28.50;51.80;;;;;;5007543;28;20371;-71
2022/08/04 13:18:25;;;;;;;6.63;3.85;;;28.30;51.70;;;;;;4973399;28;20134;-71
2022/08/04 13:20:51;;;;;;;3.20;2.92;;;28.30;51.70;;;;;;4989671;28;20070;-71
2022/08/04 13:23:18;;;;;;;3.88;3.53;;;28.40;51.80;;;;;;5035605;28;20489;-71
2022/08/04 13:25:46;;;;;;;4.57;4.10;;;28.40;51.80;;;;;;5047136;28;20482;-74
2022/08/04 13:28:22;;;;;;;6.38;4.05;;;28.30;51.90;;;;;;5053182;28;20117;-74
2022/08/04 13:31:01;;;;;;;4.22;3.33;;;28.30;52.10;;;;;;5076749;28;20041;-74
2022/08/04 13:33:34;;;;;;;5.22;3.30;;;28.40;52.30;;;;;;5065818;28;20033;-74
2022/08/04 13:36:00;;;;;;;6.72;3.13;;;28.40;52.20;;;;;;5062870;28;20036;-74
2022/08/04 13:38:28;;;;;;;3.28;3.05;;;28.40;52.10;;;;;;5064026;28;20465;-74